createdAt,value
2023-01-29T00:11:01.124Z,36.44
2023-01-29T03:21:55.241Z,13.57
2023-01-29T03:22:55.500Z,17.03
2023-01-29T03:23:54.622Z,16.86
2023-01-29T03:24:54.549Z,17.06
2023-01-29T03:25:54.530Z,16.66
2023-01-29T03:26:54.538Z,17.71
2023-01-29T03:27:54.764Z,17.44
2023-01-29T03:28:54.544Z,16.47
2023-01-29T03:29:54.517Z,17.33
2023-01-29T03:30:55.305Z,17.10
2023-01-29T03:31:54.545Z,16.55
2023-01-29T03:32:54.476Z,17.22
2023-01-29T03:33:54.455Z,17.25
2023-01-29T03:34:54.461Z,18.25
2023-01-29T03:35:54.471Z,18.96
2023-01-29T03:36:54.515Z,17.84
2023-01-29T03:37:54.488Z,17.27
2023-01-29T03:38:54.531Z,18.10
2023-01-29T03:39:54.487Z,18.32
2023-01-29T03:40:54.506Z,18.11
2023-01-29T03:41:54.397Z,18.46
2023-01-29T03:42:54.537Z,18.07
2023-01-29T03:43:54.447Z,18.46
2023-01-29T03:44:54.527Z,18.02
2023-01-29T03:45:54.688Z,19.33
2023-01-29T03:46:54.582Z,17.31
2023-01-29T03:47:54.695Z,17.97
2023-01-29T03:48:54.733Z,18.87
2023-01-29T03:51:14.946Z,18.22
2023-01-29T03:52:14.986Z,17.41
2023-01-29T03:53:15.973Z,17.44
2023-01-29T03:54:14.720Z,18.94
2023-01-29T03:55:15.035Z,17.38
2023-01-29T03:56:14.867Z,19.66
2023-01-29T03:57:15.141Z,18.27
2023-01-29T03:58:15.989Z,18.84
2023-01-29T03:59:14.991Z,17.75
2023-01-29T04:00:15.443Z,17.53
2023-01-29T04:01:15.410Z,18.64
2023-01-29T04:02:15.493Z,18.89
2023-01-29T04:03:16.346Z,18.24
2023-01-29T04:04:15.585Z,19.75
2023-01-29T04:06:52.081Z,11.12
2023-01-29T04:09:12.579Z,17.79
2023-01-29T04:10:11.901Z,18.06
2023-01-29T04:12:32.222Z,16.96
2023-01-29T04:14:32.151Z,16.79
2023-01-29T04:15:32.357Z,17.23
2023-01-29T04:16:32.360Z,17.21
2023-01-29T04:17:32.231Z,18.52
2023-01-29T04:18:32.642Z,18.50
2023-01-29T04:19:32.249Z,17.85
2023-01-29T04:20:32.205Z,16.67
2023-01-29T04:21:32.615Z,16.39
2023-01-29T04:22:32.332Z,13.98
2023-01-29T04:23:32.511Z,13.22
2023-01-29T04:24:32.229Z,13.06
2023-01-29T04:26:32.364Z,12.19
2023-01-29T04:27:32.593Z,12.99
2023-01-29T04:29:32.287Z,12.37
2023-01-29T04:30:32.346Z,11.51
2023-01-29T04:31:32.417Z,11.64
2023-01-29T04:32:32.590Z,10.88
2023-01-29T04:33:32.320Z,11.21
2023-01-29T04:35:33.046Z,10.88
2023-01-29T04:36:32.759Z,11.22
2023-01-29T04:38:32.551Z,10.24
2023-01-29T04:39:33.307Z,10.06
2023-01-29T04:40:32.766Z,9.36
2023-01-29T04:41:32.902Z,12.33
2023-01-29T04:43:53.420Z,12.48
2023-01-29T04:44:53.268Z,12.71
2023-01-29T04:45:52.874Z,12.14
2023-01-29T04:46:52.824Z,11.32
2023-01-29T04:47:52.889Z,11.83
2023-01-29T04:48:52.863Z,11.29
2023-01-29T04:49:52.878Z,10.73
2023-01-29T04:50:52.804Z,11.22
2023-01-29T04:51:52.819Z,10.75
2023-01-29T04:52:52.777Z,10.91
2023-01-29T04:53:52.801Z,11.70
2023-01-29T04:54:52.776Z,10.92
2023-01-29T04:55:52.794Z,9.71
2023-01-29T04:56:52.793Z,10.43
2023-01-29T04:57:52.796Z,10.60
2023-01-29T04:58:52.751Z,9.89
2023-01-29T04:59:52.773Z,11.45
2023-01-29T05:00:52.721Z,11.15
2023-01-29T05:01:52.778Z,9.95
2023-01-29T05:02:52.778Z,9.78
2023-01-29T05:03:52.724Z,10.02
2023-01-29T05:04:52.706Z,9.93
2023-01-29T05:05:52.780Z,11.44
2023-01-29T06:40:16.963Z,9.97
2023-01-29T06:41:16.458Z,11.47
2023-01-29T07:24:17.549Z,8.58
2023-01-29T07:25:17.381Z,9.80
2023-01-29T07:32:19.556Z,9.39
2023-01-29T07:33:18.066Z,11.26
2023-01-29T07:34:17.867Z,10.99
2023-01-29T07:36:18.113Z,10.97
2023-01-29T07:37:17.722Z,11.83
2023-01-29T07:38:17.757Z,10.93
2023-01-29T07:39:18.265Z,11.15
2023-01-29T07:40:18.135Z,11.35
2023-01-29T07:41:17.910Z,10.68
2023-01-29T07:42:18.071Z,10.25
2023-01-29T07:43:19.536Z,11.46
2023-01-29T07:44:17.742Z,11.76
2023-01-29T07:45:17.760Z,12.33
2023-01-29T07:46:17.680Z,11.92
2023-01-29T07:47:17.876Z,12.11
2023-01-29T07:48:17.939Z,12.32
2023-01-29T07:50:18.013Z,12.02
2023-01-29T07:51:17.842Z,11.79
2023-01-29T07:52:17.888Z,12.39
2023-01-29T07:53:17.958Z,10.71
2023-01-29T07:54:18.035Z,11.68
2023-01-29T07:55:18.161Z,10.85
2023-01-29T07:56:18.069Z,11.74
2023-01-29T07:57:18.486Z,13.25
2023-01-29T07:58:18.313Z,13.22
2023-01-29T07:59:18.275Z,11.99
2023-01-29T08:00:18.656Z,12.75
2023-01-29T08:02:18.284Z,13.50
2023-01-29T08:03:18.446Z,12.78
2023-01-29T08:08:58.503Z,11.20
2023-01-29T08:25:58.322Z,11.68
2023-01-29T08:43:00.368Z,11.77
2023-01-29T08:43:58.105Z,11.82
2023-01-29T08:44:58.052Z,11.68
2023-01-29T08:47:18.624Z,11.42
2023-01-29T08:48:18.533Z,12.54
2023-01-29T08:49:18.002Z,12.51
2023-01-29T08:50:18.070Z,12.89
2023-01-29T08:51:17.797Z,11.55
2023-01-29T08:52:17.705Z,11.73
2023-01-29T08:53:17.759Z,11.72
2023-01-29T08:54:17.711Z,12.83
2023-01-29T08:55:18.136Z,12.12
2023-01-29T08:56:17.854Z,12.11
2023-01-29T08:57:17.670Z,10.97
2023-01-29T08:58:17.840Z,12.95
2023-01-29T08:59:17.641Z,12.56
2023-01-29T09:00:17.917Z,11.57
2023-01-29T09:28:00.679Z,12.94
2023-01-29T09:29:00.269Z,12.97
2023-01-29T09:30:00.589Z,13.94
2023-01-29T09:31:00.360Z,13.95
2023-01-29T09:33:19.866Z,14.56
2023-01-29T09:34:19.853Z,14.08
2023-01-29T09:35:19.808Z,13.06
2023-01-29T09:36:19.884Z,13.56
2023-01-29T09:37:21.060Z,12.34
2023-01-29T09:38:20.033Z,13.33
2023-01-29T09:39:19.779Z,13.02
2023-01-29T09:40:19.691Z,13.38
2023-01-29T09:41:19.705Z,13.03
2023-01-29T09:42:19.734Z,13.77
2023-01-29T09:43:19.691Z,13.79
2023-01-29T09:44:19.715Z,13.48
2023-01-29T09:45:19.766Z,13.77
2023-01-29T09:46:19.719Z,14.15
2023-01-29T09:47:19.683Z,14.69
2023-01-29T09:48:19.658Z,15.34
2023-01-29T09:49:19.667Z,16.83
2023-01-29T09:50:20.403Z,16.96
2023-01-29T09:51:19.663Z,16.35
2023-01-29T09:52:19.613Z,16.32
2023-01-29T09:53:19.679Z,17.04
2023-01-29T09:54:19.667Z,15.84
2023-01-29T09:55:19.600Z,17.24
2023-01-29T09:56:19.589Z,16.28
2023-01-29T09:57:19.681Z,17.92
2023-01-29T09:58:19.611Z,16.60
2023-01-29T09:59:19.609Z,16.30
2023-01-29T10:00:19.621Z,14.98
2023-01-29T10:01:19.807Z,15.46
2023-01-29T10:02:19.779Z,13.72
2023-01-29T10:03:19.682Z,14.73
2023-01-29T10:06:20.038Z,10.97
2023-01-29T10:07:20.117Z,14.90
2023-01-29T10:08:20.070Z,15.72
2023-01-29T10:09:20.682Z,15.10
2023-01-29T10:10:19.841Z,16.33
2023-01-29T10:11:19.682Z,15.31
2023-01-29T10:12:19.815Z,14.37
2023-01-29T10:14:19.686Z,14.54
2023-01-29T10:15:20.805Z,14.93
2023-01-29T10:17:19.787Z,15.15
2023-01-29T10:18:19.768Z,14.49
2023-01-29T10:19:19.623Z,15.32
2023-01-29T10:21:19.686Z,16.71
2023-01-29T10:22:19.772Z,15.15
2023-01-29T10:23:19.753Z,15.89
2023-01-29T10:26:19.780Z,17.20
2023-01-29T10:27:19.628Z,17.33
2023-01-29T10:28:19.624Z,16.95
2023-01-29T10:29:20.297Z,16.48
2023-01-29T10:30:19.925Z,16.54
2023-01-29T10:35:09.377Z,16.54
2023-01-29T10:42:22.568Z,16.07
2023-01-29T10:44:53.655Z,14.20
2023-01-29T10:48:31.691Z,17.06
2023-01-29T10:49:31.831Z,15.54
2023-01-29T10:50:31.897Z,16.17
2023-01-29T10:51:31.628Z,15.83
2023-01-29T10:52:31.617Z,15.73
2023-01-29T10:53:31.576Z,15.59
2023-01-29T10:54:31.524Z,14.84
2023-01-29T10:55:31.541Z,15.85
2023-01-29T10:56:31.598Z,15.30
2023-01-29T10:58:31.511Z,18.75
2023-01-29T11:00:31.525Z,16.30
2023-01-29T11:01:31.484Z,15.00
2023-01-29T11:02:31.484Z,16.84
2023-01-29T11:03:31.566Z,17.08
2023-01-29T11:04:31.474Z,17.87
2023-01-29T11:05:31.539Z,17.48
2023-01-29T11:06:31.506Z,17.46
2023-01-29T11:07:31.552Z,17.38
2023-01-29T11:08:31.646Z,16.16
2023-01-29T11:10:31.562Z,16.33
2023-01-29T11:11:31.591Z,15.54
2023-01-29T11:12:31.675Z,17.60
2023-01-29T11:13:31.653Z,15.31
2023-01-29T13:11:55.521Z,17.24
2023-01-29T13:12:55.452Z,15.35
2023-01-29T13:13:55.618Z,17.14
2023-01-29T13:14:55.423Z,16.00
2023-01-29T13:15:55.538Z,16.09
2023-01-29T13:16:55.449Z,15.71
2023-01-29T13:17:55.429Z,15.02
2023-01-29T13:18:55.474Z,16.05
2023-01-29T13:19:55.393Z,15.62
2023-01-29T13:20:55.496Z,15.65
2023-01-29T13:21:55.387Z,17.53
2023-01-29T13:22:55.388Z,16.37
2023-01-29T13:23:55.469Z,16.65
2023-01-29T13:25:04.524Z,16.93
2023-01-29T13:26:55.338Z,17.27
2023-01-29T13:27:55.396Z,15.92
2023-01-29T13:28:55.405Z,17.73
2023-01-29T13:29:55.474Z,18.68
2023-01-29T13:32:15.212Z,17.52
2023-01-29T13:33:15.844Z,19.19
2023-01-29T13:34:15.174Z,17.33
2023-01-29T13:35:15.947Z,16.93
2023-01-29T13:36:16.238Z,17.97
2023-01-29T13:37:15.191Z,18.31
2023-01-29T13:38:15.187Z,18.99
2023-01-29T13:39:15.352Z,17.98
2023-01-29T13:40:15.544Z,17.81
2023-01-29T13:41:15.280Z,16.72
2023-01-29T13:42:15.273Z,15.99
2023-01-29T13:43:15.290Z,17.20
2023-01-29T13:44:15.303Z,16.73
2023-01-29T13:45:15.767Z,16.99
2023-01-29T13:46:15.358Z,17.03
2023-01-29T13:47:15.409Z,17.82
2023-01-29T13:48:15.533Z,16.95
2023-01-29T13:49:15.544Z,17.93
2023-01-29T13:50:15.672Z,18.06
2023-01-29T13:51:15.684Z,18.22
2023-01-29T13:52:15.689Z,19.13
2023-01-29T13:53:15.693Z,18.47
2023-01-29T13:54:15.800Z,18.38
2023-01-29T14:36:56.157Z,21.16
2023-01-29T14:37:56.063Z,21.75
2023-01-29T14:38:56.195Z,20.98
2023-01-29T14:39:56.041Z,21.09
2023-01-29T14:40:55.968Z,21.54
2023-01-29T14:41:55.924Z,20.24
2023-01-29T14:42:56.067Z,20.69
2023-01-29T14:43:55.953Z,22.05
2023-01-29T14:44:55.900Z,23.04
2023-01-29T14:45:55.905Z,22.65
2023-01-29T14:46:55.880Z,21.55
2023-01-29T14:47:55.865Z,21.35
2023-01-29T14:48:55.904Z,21.86
2023-01-29T14:49:55.888Z,23.75
2023-01-29T14:50:55.843Z,21.64
2023-01-29T14:52:12.101Z,20.71
2023-01-29T14:52:56.337Z,21.45
2023-01-29T14:53:58.899Z,20.59
2023-01-29T14:56:16.823Z,20.80
2023-01-29T14:57:16.343Z,21.57
2023-01-29T14:58:15.852Z,20.80
2023-01-29T14:59:15.936Z,19.93
2023-01-29T15:00:16.040Z,20.28
2023-01-29T15:01:15.995Z,19.37
2023-01-29T15:02:16.129Z,20.12
2023-01-29T15:03:16.734Z,20.08
2023-01-29T15:04:15.832Z,20.43
2023-01-29T15:05:16.239Z,21.65
2023-01-29T15:06:15.834Z,18.43
2023-01-29T15:07:15.837Z,19.23
2023-01-29T15:08:15.776Z,21.03
2023-01-29T15:09:15.799Z,19.25
2023-01-29T15:10:23.481Z,21.32
2023-01-29T15:11:16.769Z,20.95
2023-01-29T15:12:15.773Z,20.62
2023-01-29T15:13:15.778Z,22.68
2023-01-29T15:14:15.837Z,22.15
2023-01-29T15:15:15.916Z,21.90
2023-01-29T15:20:03.010Z,13.01
2023-01-29T15:21:02.301Z,21.29
2023-01-29T15:22:01.197Z,21.30
2023-01-29T15:24:00.766Z,21.41
2023-01-29T15:25:01.571Z,23.00
2023-01-29T15:27:20.422Z,22.77
2023-01-29T15:28:20.314Z,22.82
2023-01-29T15:29:20.399Z,22.77
2023-01-29T15:30:20.647Z,22.79
2023-01-29T15:31:20.628Z,21.66
2023-01-29T15:32:21.019Z,22.38
2023-01-29T15:33:20.542Z,23.74
2023-01-29T15:34:20.615Z,23.80
2023-01-29T15:35:20.867Z,22.50
2023-01-29T15:36:20.665Z,22.17
2023-01-29T15:37:20.704Z,20.81
2023-01-29T15:38:20.743Z,21.80
2023-01-29T15:39:20.750Z,21.92
2023-01-29T15:40:20.832Z,22.24
2023-01-29T15:41:20.811Z,21.68
2023-01-29T15:42:20.825Z,21.70
2023-01-29T15:43:20.891Z,21.92
2023-01-29T15:44:21.032Z,22.94
2023-01-29T15:46:21.098Z,22.34
2023-01-29T15:47:21.142Z,22.99
2023-01-29T15:48:21.213Z,22.22
2023-01-29T15:49:21.250Z,22.06
2023-01-29T15:50:21.332Z,21.53
2023-01-29T15:51:21.341Z,22.45
2023-01-29T15:52:21.410Z,21.68
2023-01-29T15:53:21.552Z,22.87
2023-01-29T15:54:21.502Z,22.88
2023-01-29T15:55:21.538Z,21.25
2023-01-29T15:56:21.578Z,21.12
2023-01-29T15:57:21.616Z,22.38
2023-01-29T15:58:21.554Z,22.71
2023-01-29T15:59:21.589Z,21.50
2023-01-29T16:00:21.596Z,22.05
2023-01-29T16:02:21.633Z,30.23
2023-01-29T16:03:21.591Z,28.90
2023-01-29T16:04:21.669Z,31.72
2023-01-29T16:08:21.767Z,31.71
2023-01-29T16:09:22.299Z,33.26
2023-01-29T16:10:21.657Z,33.40
2023-01-29T16:12:21.657Z,32.37
2023-01-29T16:13:21.639Z,32.04
2023-01-29T16:14:21.741Z,29.70
2023-01-29T16:17:21.574Z,28.86
2023-01-29T16:18:21.607Z,26.67
2023-01-29T16:19:21.613Z,29.35
2023-01-29T16:20:21.584Z,27.11
2023-01-29T16:21:21.607Z,26.48
2023-01-29T16:22:21.582Z,27.63
2023-01-29T16:23:21.598Z,28.05
2023-01-29T16:24:21.589Z,27.01
2023-01-29T16:25:21.564Z,26.36
2023-01-29T16:26:21.554Z,28.17
2023-01-29T16:27:21.596Z,27.23
2023-01-29T16:28:21.617Z,26.67
2023-01-29T16:29:21.510Z,27.32
2023-01-29T16:30:21.562Z,27.05
2023-01-29T16:31:21.758Z,26.35
2023-01-29T16:32:21.743Z,27.72
2023-01-29T16:33:21.725Z,28.24
2023-01-29T16:34:21.841Z,28.16
2023-01-29T16:35:21.860Z,28.40
2023-01-29T16:36:21.877Z,26.41
2023-01-29T16:37:21.858Z,25.67
2023-01-29T16:38:21.866Z,29.56
2023-01-29T16:39:21.896Z,27.07
2023-01-29T16:40:21.888Z,27.67
2023-01-29T16:41:21.878Z,27.99
2023-01-29T16:42:21.871Z,27.91
2023-01-29T16:43:22.812Z,27.43
2023-01-29T16:44:21.873Z,27.27
2023-01-29T16:45:21.872Z,28.85
2023-01-29T16:46:21.895Z,28.47
2023-01-29T16:47:21.940Z,29.61
2023-01-29T16:48:22.010Z,28.04
2023-01-29T16:49:21.895Z,27.14
2023-01-29T16:50:21.907Z,26.95
2023-01-29T16:51:21.917Z,28.34
2023-01-29T16:52:21.917Z,28.82
2023-01-29T16:53:21.937Z,29.81
2023-01-29T16:54:21.867Z,28.72
2023-01-29T16:55:21.976Z,28.73
2023-01-29T16:56:21.989Z,28.38
2023-01-29T16:57:21.963Z,29.90
2023-01-29T16:58:22.004Z,28.22
2023-01-29T16:59:22.011Z,27.60
2023-01-29T17:00:22.080Z,28.90
2023-01-29T17:01:22.033Z,28.27
2023-01-29T17:02:22.053Z,28.68
2023-01-29T17:03:22.121Z,29.85
2023-01-29T17:04:22.133Z,27.26
2023-01-29T17:05:22.115Z,28.90
2023-01-29T17:06:22.318Z,27.67
2023-01-29T17:07:22.245Z,26.00
2023-01-29T17:08:22.242Z,26.90
2023-01-29T17:09:22.279Z,28.48
2023-01-29T17:10:22.298Z,29.63
2023-01-29T17:11:22.359Z,33.52
2023-01-29T17:12:22.503Z,32.75
2023-01-29T17:13:22.475Z,32.00
2023-01-29T17:14:22.586Z,32.37
2023-01-29T17:15:22.520Z,31.67
2023-01-29T17:16:22.656Z,31.58
2023-01-29T17:17:22.635Z,30.56
2023-01-29T17:18:22.686Z,30.50
2023-01-29T17:19:22.734Z,30.45
2023-01-29T17:20:22.770Z,30.37
2023-01-29T17:21:22.878Z,28.89
2023-01-29T17:22:22.866Z,28.13
2023-01-29T17:23:22.882Z,28.19
2023-01-29T17:24:22.901Z,28.45
2023-01-29T17:25:22.849Z,28.98
2023-01-29T17:26:22.984Z,28.95
2023-01-29T17:27:22.881Z,27.99
2023-01-29T17:28:22.913Z,27.77
2023-01-29T17:29:22.926Z,28.05
2023-01-29T17:30:22.963Z,26.98
2023-01-29T17:31:23.083Z,26.40
2023-01-29T17:32:22.997Z,26.75
2023-01-29T17:33:22.952Z,27.51
2023-01-29T17:34:22.956Z,25.73
2023-01-29T17:35:22.970Z,25.98
2023-01-29T17:36:22.918Z,26.16
2023-01-29T17:37:22.919Z,25.25
2023-01-29T17:38:26.334Z,27.01
2023-01-29T17:39:22.936Z,25.84
2023-01-29T17:40:22.989Z,27.19
2023-01-29T17:41:22.903Z,29.65
2023-01-29T17:42:22.915Z,32.01
2023-01-29T17:43:22.921Z,34.39
2023-01-29T17:44:22.921Z,33.31
2023-01-29T17:45:22.931Z,36.39
2023-01-29T17:46:22.962Z,35.82
2023-01-29T17:47:22.903Z,37.95
2023-01-29T17:48:22.954Z,34.50
2023-01-29T17:49:22.850Z,35.14
2023-01-29T17:50:22.860Z,38.24
2023-01-29T17:51:24.880Z,39.32
2023-01-29T17:52:22.875Z,38.17
2023-01-29T17:53:24.828Z,36.63
2023-01-29T17:54:22.844Z,36.06
2023-01-29T17:55:22.867Z,36.24
2023-01-29T17:56:22.886Z,36.00
2023-01-29T17:57:22.803Z,35.43
2023-01-29T17:58:22.933Z,35.59
2023-01-29T17:59:22.845Z,32.68
2023-01-29T18:00:22.859Z,29.12
2023-01-29T18:01:22.834Z,32.53
2023-01-29T18:02:28.684Z,31.06
2023-01-29T18:03:23.778Z,30.81
2023-01-29T18:04:22.885Z,30.41
2023-01-29T18:06:43.159Z,32.65
2023-01-29T18:07:43.248Z,31.60
2023-01-29T18:08:43.171Z,32.63
2023-01-29T18:09:43.609Z,36.74
2023-01-29T18:10:43.011Z,35.62
2023-01-29T18:11:43.023Z,33.34
2023-01-29T18:12:43.072Z,31.85
2023-01-29T18:13:43.152Z,34.15
2023-01-29T18:14:43.027Z,35.28
2023-01-29T18:15:43.062Z,35.99
2023-01-29T18:16:43.057Z,36.59
2023-01-29T18:17:42.951Z,36.89
2023-01-29T18:18:42.961Z,37.44
2023-01-29T18:19:42.993Z,36.69
2023-01-29T18:20:42.886Z,38.16
2023-01-29T18:21:42.896Z,37.33
2023-01-29T18:22:43.039Z,40.65
2023-01-29T18:23:43.004Z,39.64
2023-01-29T18:24:43.140Z,38.19
2023-01-29T18:25:43.590Z,39.45
2023-01-29T18:26:42.933Z,38.17
2023-01-29T18:27:42.933Z,36.02
2023-01-29T18:28:42.863Z,36.06
2023-01-29T18:29:42.855Z,37.49
2023-01-29T18:30:42.905Z,37.28
2023-01-29T18:31:42.993Z,35.81
2023-01-29T18:32:42.830Z,35.14
2023-01-29T18:33:42.834Z,35.30
2023-01-29T18:34:42.836Z,35.26
2023-01-29T18:35:42.842Z,35.42
2023-01-29T18:36:42.789Z,39.02
2023-01-29T18:37:42.864Z,37.76
2023-01-29T18:38:43.030Z,30.59
2023-01-29T18:39:42.962Z,27.84
2023-01-29T18:40:43.116Z,34.22
2023-01-29T18:41:43.095Z,46.87
2023-01-29T18:42:43.092Z,41.86
2023-01-29T18:43:43.149Z,37.90
2023-01-29T18:44:43.125Z,38.08
2023-01-29T18:45:43.242Z,33.92
2023-01-29T18:46:43.360Z,34.59
2023-01-29T18:47:43.328Z,32.06
2023-01-29T18:48:43.416Z,30.63
2023-01-29T18:49:43.442Z,29.65
2023-01-29T18:50:43.542Z,30.26
2023-01-29T18:51:43.569Z,31.30
2023-01-29T18:52:43.577Z,33.26
2023-01-29T18:53:45.352Z,30.22
2023-01-29T18:54:43.612Z,30.36
2023-01-29T18:55:43.668Z,28.32
2023-01-29T18:57:13.570Z,29.31
2023-01-29T18:58:27.466Z,28.50
2023-01-29T19:00:04.612Z,36.76
2023-01-29T19:01:03.703Z,41.04
2023-01-29T19:02:03.725Z,45.08
2023-01-29T19:03:03.883Z,45.57
2023-01-29T19:04:04.128Z,39.90
2023-01-29T19:05:03.772Z,38.50
2023-01-29T19:06:03.956Z,40.17
2023-01-29T19:07:03.659Z,38.54
2023-01-29T19:08:03.692Z,38.12
2023-01-29T19:09:03.688Z,35.88
2023-01-29T19:10:03.645Z,33.57
2023-01-29T19:11:03.709Z,37.46
2023-01-29T19:12:03.575Z,33.94
2023-01-29T19:13:05.751Z,34.36
2023-01-29T19:14:03.585Z,36.67
2023-01-29T19:15:03.574Z,65.05
2023-01-29T19:16:03.650Z,62.50
2023-01-29T19:17:03.669Z,46.46
2023-01-29T19:18:03.511Z,39.81
2023-01-29T19:19:03.578Z,40.67
2023-01-29T19:20:04.579Z,37.74
2023-01-29T19:21:03.569Z,30.88
2023-01-29T19:22:03.649Z,32.55
2023-01-29T19:23:03.565Z,33.24
2023-01-29T19:24:03.493Z,31.72
2023-01-29T19:25:04.536Z,32.80
2023-01-29T19:26:03.511Z,33.76
2023-01-29T19:28:23.963Z,21.88
2023-01-29T19:29:24.287Z,30.89
2023-01-29T19:30:24.566Z,31.51
2023-01-29T19:31:23.914Z,32.50
2023-01-29T19:32:23.987Z,33.10
2023-01-29T19:33:23.768Z,33.59
2023-01-29T19:35:44.565Z,31.99
2023-01-29T19:36:44.336Z,32.53
2023-01-29T19:37:44.413Z,37.30
2023-01-29T19:44:21.786Z,35.34
2023-01-29T19:45:37.179Z,36.61
2023-01-29T19:46:22.210Z,33.61
2023-01-29T19:47:22.471Z,34.61
2023-01-29T19:48:20.994Z,35.28
2023-01-29T19:49:20.968Z,40.74
2023-01-29T19:50:21.078Z,44.11
2023-01-29T19:51:20.968Z,41.16
2023-01-29T19:52:20.962Z,37.57
2023-01-29T19:53:20.955Z,35.63
2023-01-29T19:54:21.089Z,36.01
2023-01-29T19:55:21.270Z,38.30
2023-01-29T19:56:24.019Z,36.84
2023-01-29T20:24:21.428Z,48.86
2023-01-29T20:57:20.445Z,32.12
2023-01-29T21:39:21.848Z,27.44
2023-01-29T22:00:00.550Z,13.10
